sensor_id;sensor_type;location;lat;lon;timestamp;P1;durP1;ratioP1;P2;durP2;ratioP2
34278;SDS011;20538;51.528;9.942;2022-10-30T00:00:34;27.27;;;12.52;;
34278;SDS011;20538;51.528;9.942;2022-10-30T00:02:59;20.30;;;10.45;;
34278;SDS011;20538;51.528;9.942;2022-10-30T00:05:25;24.38;;;11.13;;
34278;SDS011;20538;51.528;9.942;2022-10-30T00:07:53;25.15;;;11.10;;
34278;SDS011;20538;51.528;9.942;2022-10-30T00:10:20;30.23;;;12.25;;
34278;SDS011;20538;51.528;9.942;2022-10-30T00:12:46;26.00;;;11.68;;
34278;SDS011;20538;51.528;9.942;2022-10-30T00:15:11;27.55;;;11.20;;
34278;SDS011;20538;51.528;9.942;2022-10-30T00:17:37;22.80;;;10.88;;
34278;SDS011;20538;51.528;9.942;2022-10-30T00:20:03;25.08;;;10.90;;
34278;SDS011;20538;51.528;9.942;2022-10-30T00:22:30;23.35;;;9.68;;
34278;SDS011;20538;51.528;9.942;2022-10-30T00:24:56;30.77;;;12.13;;
34278;SDS011;20538;51.528;9.942;2022-10-30T00:27:21;19.40;;;9.88;;
34278;SDS011;20538;51.528;9.942;2022-10-30T00:29:47;19.08;;;10.73;;
34278;SDS011;20538;51.528;9.942;2022-10-30T00:32:13;23.77;;;10.48;;
34278;SDS011;20538;51.528;9.942;2022-10-30T00:34:41;25.33;;;10.40;;
34278;SDS011;20538;51.528;9.942;2022-10-30T00:37:06;26.73;;;11.10;;
34278;SDS011;20538;51.528;9.942;2022-10-30T00:39:32;20.38;;;10.52;;
34278;SDS011;20538;51.528;9.942;2022-10-30T00:41:58;19.48;;;10.93;;
34278;SDS011;20538;51.528;9.942;2022-10-30T00:49:36;26.58;;;10.20;;
34278;SDS011;20538;51.528;9.942;2022-10-30T00:52:09;19.88;;;9.60;;
34278;SDS011;20538;51.528;9.942;2022-10-30T00:54:35;20.75;;;10.57;;
34278;SDS011;20538;51.528;9.942;2022-10-30T00:57:02;22.17;;;9.32;;
34278;SDS011;20538;51.528;9.942;2022-10-30T00:59:31;21.00;;;9.45;;
34278;SDS011;20538;51.528;9.942;2022-10-30T01:02:00;27.10;;;11.90;;
34278;SDS011;20538;51.528;9.942;2022-10-30T01:04:27;23.02;;;10.70;;
34278;SDS011;20538;51.528;9.942;2022-10-30T01:06:55;23.20;;;11.75;;
34278;SDS011;20538;51.528;9.942;2022-10-30T01:09:22;21.67;;;10.60;;
34278;SDS011;20538;51.528;9.942;2022-10-30T01:11:48;19.52;;;10.00;;
34278;SDS011;20538;51.528;9.942;2022-10-30T01:14:14;26.27;;;9.98;;
34278;SDS011;20538;51.528;9.942;2022-10-30T01:22:33;23.75;;;9.80;;
34278;SDS011;20538;51.528;9.942;2022-10-30T01:36:38;24.77;;;10.38;;
34278;SDS011;20538;51.528;9.942;2022-10-30T01:39:18;20.50;;;9.57;;
34278;SDS011;20538;51.528;9.942;2022-10-30T01:41:46;21.65;;;9.55;;
34278;SDS011;20538;51.528;9.942;2022-10-30T01:44:24;20.40;;;10.55;;
34278;SDS011;20538;51.528;9.942;2022-10-30T01:52:35;22.77;;;10.45;;
34278;SDS011;20538;51.528;9.942;2022-10-30T01:58:00;21.35;;;9.85;;
34278;SDS011;20538;51.528;9.942;2022-10-30T02:00:41;19.92;;;9.05;;
34278;SDS011;20538;51.528;9.942;2022-10-30T02:03:10;24.33;;;8.75;;
34278;SDS011;20538;51.528;9.942;2022-10-30T02:05:40;23.65;;;9.88;;
34278;SDS011;20538;51.528;9.942;2022-10-30T02:08:10;21.33;;;9.27;;
34278;SDS011;20538;51.528;9.942;2022-10-30T02:10:35;17.95;;;9.40;;
34278;SDS011;20538;51.528;9.942;2022-10-30T02:13:02;20.13;;;9.00;;
34278;SDS011;20538;51.528;9.942;2022-10-30T02:15:29;19.27;;;8.38;;
34278;SDS011;20538;51.528;9.942;2022-10-30T02:17:55;19.33;;;8.30;;
34278;SDS011;20538;51.528;9.942;2022-10-30T02:20:21;22.35;;;8.63;;
34278;SDS011;20538;51.528;9.942;2022-10-30T02:22:48;19.02;;;8.93;;
34278;SDS011;20538;51.528;9.942;2022-10-30T02:25:14;19.45;;;8.30;;
34278;SDS011;20538;51.528;9.942;2022-10-30T02:27:40;22.38;;;8.95;;
34278;SDS011;20538;51.528;9.942;2022-10-30T02:30:06;23.45;;;9.57;;
34278;SDS011;20538;51.528;9.942;2022-10-30T02:32:32;16.15;;;8.60;;
34278;SDS011;20538;51.528;9.942;2022-10-30T02:34:58;20.70;;;8.95;;
34278;SDS011;20538;51.528;9.942;2022-10-30T02:37:24;18.38;;;8.23;;
34278;SDS011;20538;51.528;9.942;2022-10-30T02:39:49;24.63;;;7.80;;
34278;SDS011;20538;51.528;9.942;2022-10-30T02:42:18;21.90;;;8.18;;
34278;SDS011;20538;51.528;9.942;2022-10-30T02:44:44;19.33;;;8.90;;
34278;SDS011;20538;51.528;9.942;2022-10-30T02:47:09;18.50;;;8.65;;
34278;SDS011;20538;51.528;9.942;2022-10-30T02:49:35;19.27;;;8.05;;
34278;SDS011;20538;51.528;9.942;2022-10-30T02:52:01;29.48;;;8.38;;
34278;SDS011;20538;51.528;9.942;2022-10-30T02:54:27;20.88;;;8.98;;
34278;SDS011;20538;51.528;9.942;2022-10-30T02:56:52;17.15;;;7.95;;
34278;SDS011;20538;51.528;9.942;2022-10-30T02:59:18;19.88;;;8.63;;
34278;SDS011;20538;51.528;9.942;2022-10-30T03:01:44;18.27;;;8.18;;
34278;SDS011;20538;51.528;9.942;2022-10-30T03:04:10;19.40;;;7.97;;
34278;SDS011;20538;51.528;9.942;2022-10-30T03:06:36;20.83;;;7.13;;
34278;SDS011;20538;51.528;9.942;2022-10-30T03:09:01;17.33;;;8.75;;
34278;SDS011;20538;51.528;9.942;2022-10-30T03:11:27;16.30;;;8.30;;
34278;SDS011;20538;51.528;9.942;2022-10-30T03:13:53;14.07;;;7.20;;
34278;SDS011;20538;51.528;9.942;2022-10-30T03:16:23;15.82;;;8.15;;
34278;SDS011;20538;51.528;9.942;2022-10-30T03:18:51;20.80;;;7.88;;
34278;SDS011;20538;51.528;9.942;2022-10-30T03:21:18;17.33;;;8.52;;
34278;SDS011;20538;51.528;9.942;2022-10-30T03:23:45;24.02;;;8.85;;
34278;SDS011;20538;51.528;9.942;2022-10-30T03:26:11;19.25;;;9.07;;
34278;SDS011;20538;51.528;9.942;2022-10-30T03:28:37;15.13;;;8.00;;
34278;SDS011;20538;51.528;9.942;2022-10-30T03:31:06;14.93;;;8.93;;
34278;SDS011;20538;51.528;9.942;2022-10-30T03:33:34;17.67;;;8.52;;
34278;SDS011;20538;51.528;9.942;2022-10-30T03:36:02;19.48;;;8.23;;
34278;SDS011;20538;51.528;9.942;2022-10-30T03:38:29;19.55;;;8.23;;
34278;SDS011;20538;51.528;9.942;2022-10-30T03:40:57;16.67;;;8.40;;
34278;SDS011;20538;51.528;9.942;2022-10-30T03:43:23;18.70;;;8.52;;
34278;SDS011;20538;51.528;9.942;2022-10-30T03:45:53;18.95;;;8.13;;
34278;SDS011;20538;51.528;9.942;2022-10-30T03:48:21;18.67;;;8.57;;
34278;SDS011;20538;51.528;9.942;2022-10-30T03:50:48;20.05;;;8.40;;
34278;SDS011;20538;51.528;9.942;2022-10-30T03:53:14;21.08;;;8.95;;
34278;SDS011;20538;51.528;9.942;2022-10-30T03:55:40;24.17;;;11.30;;
34278;SDS011;20538;51.528;9.942;2022-10-30T03:58:06;19.65;;;10.25;;
34278;SDS011;20538;51.528;9.942;2022-10-30T04:00:32;22.05;;;12.02;;
34278;SDS011;20538;51.528;9.942;2022-10-30T04:02:59;25.48;;;13.38;;
34278;SDS011;20538;51.528;9.942;2022-10-30T04:05:25;36.92;;;15.88;;
34278;SDS011;20538;51.528;9.942;2022-10-30T04:07:56;30.25;;;14.00;;
34278;SDS011;20538;51.528;9.942;2022-10-30T04:10:22;26.77;;;13.05;;
34278;SDS011;20538;51.528;9.942;2022-10-30T04:12:48;28.25;;;13.13;;
34278;SDS011;20538;51.528;9.942;2022-10-30T04:15:14;28.60;;;12.57;;
34278;SDS011;20538;51.528;9.942;2022-10-30T04:17:46;20.55;;;9.65;;
34278;SDS011;20538;51.528;9.942;2022-10-30T04:20:13;24.00;;;10.43;;
34278;SDS011;20538;51.528;9.942;2022-10-30T04:22:42;19.90;;;10.65;;
34278;SDS011;20538;51.528;9.942;2022-10-30T04:25:08;26.40;;;10.27;;
34278;SDS011;20538;51.528;9.942;2022-10-30T04:27:40;20.45;;;10.32;;
34278;SDS011;20538;51.528;9.942;2022-10-30T04:30:07;24.25;;;11.02;;
34278;SDS011;20538;51.528;9.942;2022-10-30T04:32:34;19.50;;;9.95;;
34278;SDS011;20538;51.528;9.942;2022-10-30T04:35:00;21.10;;;11.02;;
34278;SDS011;20538;51.528;9.942;2022-10-30T04:37:25;21.05;;;9.80;;
34278;SDS011;20538;51.528;9.942;2022-10-30T04:39:51;20.30;;;10.65;;
34278;SDS011;20538;51.528;9.942;2022-10-30T04:42:17;20.52;;;9.57;;
34278;SDS011;20538;51.528;9.942;2022-10-30T04:44:42;19.05;;;9.20;;
34278;SDS011;20538;51.528;9.942;2022-10-30T04:47:08;21.30;;;8.70;;
34278;SDS011;20538;51.528;9.942;2022-10-30T04:49:33;20.90;;;8.75;;
34278;SDS011;20538;51.528;9.942;2022-10-30T04:51:59;18.98;;;9.75;;
34278;SDS011;20538;51.528;9.942;2022-10-30T04:54:24;22.30;;;10.32;;
34278;SDS011;20538;51.528;9.942;2022-10-30T04:56:52;16.98;;;8.80;;
34278;SDS011;20538;51.528;9.942;2022-10-30T04:59:18;22.33;;;10.35;;
34278;SDS011;20538;51.528;9.942;2022-10-30T05:01:43;23.17;;;9.57;;
34278;SDS011;20538;51.528;9.942;2022-10-30T05:04:09;19.70;;;9.25;;
34278;SDS011;20538;51.528;9.942;2022-10-30T05:06:35;22.98;;;9.98;;
34278;SDS011;20538;51.528;9.942;2022-10-30T05:09:00;18.42;;;9.52;;
34278;SDS011;20538;51.528;9.942;2022-10-30T05:11:26;17.83;;;9.23;;
34278;SDS011;20538;51.528;9.942;2022-10-30T05:13:51;25.80;;;10.45;;
34278;SDS011;20538;51.528;9.942;2022-10-30T05:16:17;22.08;;;11.07;;
34278;SDS011;20538;51.528;9.942;2022-10-30T05:18:43;25.30;;;11.02;;
34278;SDS011;20538;51.528;9.942;2022-10-30T05:21:08;27.00;;;11.13;;
34278;SDS011;20538;51.528;9.942;2022-10-30T05:23:34;24.55;;;11.02;;
34278;SDS011;20538;51.528;9.942;2022-10-30T05:26:00;20.48;;;9.70;;
34278;SDS011;20538;51.528;9.942;2022-10-30T05:28:25;25.63;;;11.00;;
34278;SDS011;20538;51.528;9.942;2022-10-30T05:30:51;28.15;;;10.48;;
34278;SDS011;20538;51.528;9.942;2022-10-30T05:33:17;23.75;;;10.65;;
34278;SDS011;20538;51.528;9.942;2022-10-30T05:35:43;21.60;;;10.10;;
34278;SDS011;20538;51.528;9.942;2022-10-30T05:38:09;19.00;;;8.80;;
34278;SDS011;20538;51.528;9.942;2022-10-30T05:40:35;22.50;;;10.10;;
34278;SDS011;20538;51.528;9.942;2022-10-30T05:43:01;18.45;;;9.15;;
34278;SDS011;20538;51.528;9.942;2022-10-30T05:45:28;24.33;;;9.90;;
34278;SDS011;20538;51.528;9.942;2022-10-30T05:47:54;26.15;;;10.25;;
34278;SDS011;20538;51.528;9.942;2022-10-30T05:50:25;20.88;;;10.30;;
34278;SDS011;20538;51.528;9.942;2022-10-30T05:52:58;21.83;;;10.23;;
34278;SDS011;20538;51.528;9.942;2022-10-30T05:55:26;19.27;;;9.32;;
34278;SDS011;20538;51.528;9.942;2022-10-30T05:57:59;21.52;;;9.73;;
34278;SDS011;20538;51.528;9.942;2022-10-30T06:00:27;22.52;;;8.95;;
34278;SDS011;20538;51.528;9.942;2022-10-30T06:03:02;21.33;;;8.95;;
34278;SDS011;20538;51.528;9.942;2022-10-30T06:05:30;23.50;;;8.20;;
34278;SDS011;20538;51.528;9.942;2022-10-30T06:07:56;22.98;;;9.38;;
34278;SDS011;20538;51.528;9.942;2022-10-30T06:10:22;18.60;;;8.13;;
34278;SDS011;20538;51.528;9.942;2022-10-30T06:13:06;26.10;;;8.68;;
34278;SDS011;20538;51.528;9.942;2022-10-30T06:15:34;25.67;;;8.80;;
34278;SDS011;20538;51.528;9.942;2022-10-30T06:17:59;16.13;;;8.23;;
34278;SDS011;20538;51.528;9.942;2022-10-30T06:20:26;21.48;;;9.50;;
34278;SDS011;20538;51.528;9.942;2022-10-30T06:25:25;19.45;;;7.68;;
34278;SDS011;20538;51.528;9.942;2022-10-30T06:27:52;18.45;;;7.97;;
34278;SDS011;20538;51.528;9.942;2022-10-30T06:30:18;18.88;;;9.15;;
34278;SDS011;20538;51.528;9.942;2022-10-30T06:32:45;21.02;;;8.65;;
34278;SDS011;20538;51.528;9.942;2022-10-30T06:35:11;21.67;;;8.30;;
34278;SDS011;20538;51.528;9.942;2022-10-30T06:37:36;19.13;;;8.73;;
34278;SDS011;20538;51.528;9.942;2022-10-30T06:40:05;18.85;;;8.77;;
34278;SDS011;20538;51.528;9.942;2022-10-30T06:42:31;18.90;;;8.40;;
34278;SDS011;20538;51.528;9.942;2022-10-30T06:44:57;28.48;;;10.73;;
34278;SDS011;20538;51.528;9.942;2022-10-30T06:47:22;20.60;;;9.88;;
34278;SDS011;20538;51.528;9.942;2022-10-30T06:49:48;21.08;;;9.93;;
34278;SDS011;20538;51.528;9.942;2022-10-30T06:52:13;22.00;;;10.55;;
34278;SDS011;20538;51.528;9.942;2022-10-30T06:54:39;23.48;;;9.95;;
34278;SDS011;20538;51.528;9.942;2022-10-30T06:57:04;19.77;;;10.13;;
34278;SDS011;20538;51.528;9.942;2022-10-30T06:59:30;18.17;;;10.43;;
34278;SDS011;20538;51.528;9.942;2022-10-30T07:01:56;19.73;;;10.30;;
34278;SDS011;20538;51.528;9.942;2022-10-30T07:04:21;21.83;;;10.30;;
34278;SDS011;20538;51.528;9.942;2022-10-30T07:06:47;24.30;;;11.02;;
34278;SDS011;20538;51.528;9.942;2022-10-30T07:09:13;19.83;;;10.52;;
34278;SDS011;20538;51.528;9.942;2022-10-30T07:11:38;21.65;;;11.20;;
34278;SDS011;20538;51.528;9.942;2022-10-30T07:14:09;25.80;;;11.70;;
34278;SDS011;20538;51.528;9.942;2022-10-30T07:16:36;23.52;;;11.50;;
34278;SDS011;20538;51.528;9.942;2022-10-30T07:19:01;20.13;;;10.57;;
34278;SDS011;20538;51.528;9.942;2022-10-30T07:21:27;17.45;;;10.52;;
34278;SDS011;20538;51.528;9.942;2022-10-30T07:23:53;21.48;;;10.18;;
34278;SDS011;20538;51.528;9.942;2022-10-30T07:26:19;23.58;;;11.13;;
34278;SDS011;20538;51.528;9.942;2022-10-30T07:28:44;22.58;;;9.98;;
34278;SDS011;20538;51.528;9.942;2022-10-30T07:31:10;22.48;;;10.18;;
34278;SDS011;20538;51.528;9.942;2022-10-30T07:33:36;21.13;;;10.50;;
34278;SDS011;20538;51.528;9.942;2022-10-30T07:36:01;21.67;;;10.75;;
34278;SDS011;20538;51.528;9.942;2022-10-30T07:38:27;20.17;;;9.85;;
34278;SDS011;20538;51.528;9.942;2022-10-30T07:40:53;20.42;;;10.13;;
34278;SDS011;20538;51.528;9.942;2022-10-30T07:43:19;18.73;;;9.68;;
34278;SDS011;20538;51.528;9.942;2022-10-30T07:45:45;21.80;;;9.18;;
34278;SDS011;20538;51.528;9.942;2022-10-30T07:48:11;17.23;;;9.18;;
34278;SDS011;20538;51.528;9.942;2022-10-30T07:50:36;23.63;;;11.00;;
34278;SDS011;20538;51.528;9.942;2022-10-30T07:53:02;19.90;;;10.32;;
34278;SDS011;20538;51.528;9.942;2022-10-30T07:55:27;20.25;;;9.18;;
34278;SDS011;20538;51.528;9.942;2022-10-30T07:57:53;27.48;;;9.35;;
34278;SDS011;20538;51.528;9.942;2022-10-30T08:00:19;18.85;;;8.95;;
34278;SDS011;20538;51.528;9.942;2022-10-30T08:02:47;16.95;;;9.48;;
34278;SDS011;20538;51.528;9.942;2022-10-30T08:05:14;21.35;;;9.82;;
34278;SDS011;20538;51.528;9.942;2022-10-30T08:07:40;16.67;;;8.95;;
34278;SDS011;20538;51.528;9.942;2022-10-30T08:10:06;20.00;;;9.25;;
34278;SDS011;20538;51.528;9.942;2022-10-30T08:12:33;22.52;;;8.75;;
34278;SDS011;20538;51.528;9.942;2022-10-30T08:14:59;15.75;;;7.88;;
34278;SDS011;20538;51.528;9.942;2022-10-30T08:17:24;31.20;;;9.05;;
34278;SDS011;20538;51.528;9.942;2022-10-30T08:19:50;19.48;;;8.73;;
34278;SDS011;20538;51.528;9.942;2022-10-30T08:22:16;15.23;;;8.77;;
34278;SDS011;20538;51.528;9.942;2022-10-30T08:24:42;22.02;;;8.82;;
34278;SDS011;20538;51.528;9.942;2022-10-30T08:27:08;18.33;;;8.18;;
34278;SDS011;20538;51.528;9.942;2022-10-30T08:29:33;22.45;;;8.15;;
34278;SDS011;20538;51.528;9.942;2022-10-30T08:31:59;22.23;;;8.07;;
34278;SDS011;20538;51.528;9.942;2022-10-30T08:34:25;26.98;;;8.18;;
34278;SDS011;20538;51.528;9.942;2022-10-30T08:36:52;21.70;;;7.40;;
34278;SDS011;20538;51.528;9.942;2022-10-30T08:39:18;22.95;;;7.43;;
34278;SDS011;20538;51.528;9.942;2022-10-30T08:41:44;16.25;;;7.05;;
34278;SDS011;20538;51.528;9.942;2022-10-30T08:44:10;19.40;;;8.05;;
34278;SDS011;20538;51.528;9.942;2022-10-30T08:46:36;16.30;;;6.60;;
34278;SDS011;20538;51.528;9.942;2022-10-30T08:49:02;21.35;;;6.57;;
34278;SDS011;20538;51.528;9.942;2022-10-30T08:51:31;21.58;;;6.65;;
34278;SDS011;20538;51.528;9.942;2022-10-30T08:53:57;16.00;;;6.15;;
34278;SDS011;20538;51.528;9.942;2022-10-30T08:56:23;15.52;;;5.43;;
34278;SDS011;20538;51.528;9.942;2022-10-30T08:58:49;17.13;;;6.10;;
34278;SDS011;20538;51.528;9.942;2022-10-30T09:01:15;23.50;;;6.32;;
34278;SDS011;20538;51.528;9.942;2022-10-30T09:03:42;18.48;;;5.88;;
34278;SDS011;20538;51.528;9.942;2022-10-30T09:06:08;21.08;;;6.65;;
34278;SDS011;20538;51.528;9.942;2022-10-30T09:08:34;17.83;;;6.50;;
34278;SDS011;20538;51.528;9.942;2022-10-30T09:11:00;17.05;;;6.18;;
34278;SDS011;20538;51.528;9.942;2022-10-30T09:13:26;14.48;;;6.22;;
34278;SDS011;20538;51.528;9.942;2022-10-30T09:15:52;14.77;;;5.80;;
34278;SDS011;20538;51.528;9.942;2022-10-30T09:18:18;21.13;;;6.90;;
34278;SDS011;20538;51.528;9.942;2022-10-30T09:20:44;25.10;;;6.88;;
34278;SDS011;20538;51.528;9.942;2022-10-30T09:23:12;13.85;;;5.78;;
34278;SDS011;20538;51.528;9.942;2022-10-30T09:25:37;12.63;;;6.28;;
34278;SDS011;20538;51.528;9.942;2022-10-30T09:28:03;14.30;;;6.22;;
34278;SDS011;20538;51.528;9.942;2022-10-30T09:30:29;17.70;;;6.13;;
34278;SDS011;20538;51.528;9.942;2022-10-30T09:32:55;14.38;;;6.25;;
34278;SDS011;20538;51.528;9.942;2022-10-30T09:35:22;19.52;;;6.55;;
34278;SDS011;20538;51.528;9.942;2022-10-30T09:37:48;19.42;;;6.47;;
34278;SDS011;20538;51.528;9.942;2022-10-30T09:43:09;17.25;;;5.93;;
34278;SDS011;20538;51.528;9.942;2022-10-30T09:48:58;15.35;;;6.05;;
34278;SDS011;20538;51.528;9.942;2022-10-30T09:54:26;20.23;;;5.30;;
34278;SDS011;20538;51.528;9.942;2022-10-30T09:57:01;13.30;;;5.50;;
34278;SDS011;20538;51.528;9.942;2022-10-30T10:05:00;17.70;;;5.85;;
34278;SDS011;20538;51.528;9.942;2022-10-30T10:07:38;13.68;;;5.78;;
34278;SDS011;20538;51.528;9.942;2022-10-30T10:10:10;9.85;;;5.78;;
34278;SDS011;20538;51.528;9.942;2022-10-30T10:13:27;15.43;;;6.07;;
34278;SDS011;20538;51.528;9.942;2022-10-30T10:16:11;21.52;;;5.65;;
34278;SDS011;20538;51.528;9.942;2022-10-30T10:18:42;17.85;;;5.78;;
34278;SDS011;20538;51.528;9.942;2022-10-30T10:21:22;18.02;;;5.22;;
34278;SDS011;20538;51.528;9.942;2022-10-30T10:23:59;14.43;;;5.60;;
34278;SDS011;20538;51.528;9.942;2022-10-30T10:31:52;13.60;;;5.37;;
34278;SDS011;20538;51.528;9.942;2022-10-30T10:51:41;21.75;;;5.20;;
34278;SDS011;20538;51.528;9.942;2022-10-30T10:54:18;15.10;;;5.00;;
34278;SDS011;20538;51.528;9.942;2022-10-30T10:56:48;19.02;;;5.75;;
34278;SDS011;20538;51.528;9.942;2022-10-30T10:59:17;14.55;;;5.45;;
34278;SDS011;20538;51.528;9.942;2022-10-30T11:01:49;20.90;;;5.57;;
34278;SDS011;20538;51.528;9.942;2022-10-30T11:04:30;14.52;;;5.43;;
34278;SDS011;20538;51.528;9.942;2022-10-30T11:07:20;15.30;;;5.10;;
34278;SDS011;20538;51.528;9.942;2022-10-30T11:09:52;16.55;;;5.22;;
34278;SDS011;20538;51.528;9.942;2022-10-30T11:12:29;17.60;;;5.25;;
34278;SDS011;20538;51.528;9.942;2022-10-30T11:15:00;16.58;;;5.88;;
34278;SDS011;20538;51.528;9.942;2022-10-30T11:17:52;17.45;;;5.63;;
34278;SDS011;20538;51.528;9.942;2022-10-30T11:23:35;17.05;;;5.78;;
34278;SDS011;20538;51.528;9.942;2022-10-30T11:26:03;15.25;;;4.97;;
34278;SDS011;20538;51.528;9.942;2022-10-30T11:31:18;17.63;;;6.03;;
34278;SDS011;20538;51.528;9.942;2022-10-30T11:33:47;15.73;;;5.00;;
34278;SDS011;20538;51.528;9.942;2022-10-30T11:36:14;14.82;;;5.07;;
34278;SDS011;20538;51.528;9.942;2022-10-30T11:38:41;18.35;;;5.88;;
34278;SDS011;20538;51.528;9.942;2022-10-30T11:41:07;15.85;;;5.47;;
34278;SDS011;20538;51.528;9.942;2022-10-30T11:43:36;17.48;;;5.30;;
34278;SDS011;20538;51.528;9.942;2022-10-30T11:46:04;19.73;;;4.70;;
34278;SDS011;20538;51.528;9.942;2022-10-30T11:48:36;12.20;;;4.78;;
34278;SDS011;20538;51.528;9.942;2022-10-30T11:51:04;18.05;;;4.82;;
34278;SDS011;20538;51.528;9.942;2022-10-30T11:53:34;20.85;;;4.72;;
34278;SDS011;20538;51.528;9.942;2022-10-30T11:56:11;13.98;;;5.03;;
34278;SDS011;20538;51.528;9.942;2022-10-30T11:58:47;16.42;;;4.68;;
34278;SDS011;20538;51.528;9.942;2022-10-30T12:01:23;18.88;;;5.03;;
34278;SDS011;20538;51.528;9.942;2022-10-30T12:03:50;15.45;;;4.20;;
34278;SDS011;20538;51.528;9.942;2022-10-30T12:06:19;11.75;;;4.60;;
34278;SDS011;20538;51.528;9.942;2022-10-30T12:09:22;21.25;;;5.18;;
34278;SDS011;20538;51.528;9.942;2022-10-30T12:11:46;15.05;;;5.00;;
34278;SDS011;20538;51.528;9.942;2022-10-30T12:14:17;18.67;;;4.90;;
34278;SDS011;20538;51.528;9.942;2022-10-30T12:16:46;14.05;;;5.40;;
34278;SDS011;20538;51.528;9.942;2022-10-30T12:19:16;15.15;;;5.22;;
34278;SDS011;20538;51.528;9.942;2022-10-30T12:21:45;15.77;;;4.35;;
34278;SDS011;20538;51.528;9.942;2022-10-30T12:24:25;16.38;;;4.80;;
34278;SDS011;20538;51.528;9.942;2022-10-30T12:26:59;26.08;;;5.20;;
34278;SDS011;20538;51.528;9.942;2022-10-30T12:29:34;15.90;;;5.65;;
34278;SDS011;20538;51.528;9.942;2022-10-30T12:32:16;14.38;;;5.07;;
34278;SDS011;20538;51.528;9.942;2022-10-30T12:34:57;16.70;;;5.45;;
34278;SDS011;20538;51.528;9.942;2022-10-30T12:37:40;15.85;;;5.00;;
34278;SDS011;20538;51.528;9.942;2022-10-30T12:42:36;17.90;;;5.93;;
34278;SDS011;20538;51.528;9.942;2022-10-30T12:45:13;13.48;;;4.72;;
34278;SDS011;20538;51.528;9.942;2022-10-30T12:47:48;22.05;;;5.22;;
34278;SDS011;20538;51.528;9.942;2022-10-30T12:50:22;16.63;;;4.75;;
34278;SDS011;20538;51.528;9.942;2022-10-30T12:55:27;14.75;;;4.72;;
34278;SDS011;20538;51.528;9.942;2022-10-30T13:00:57;15.35;;;4.65;;
34278;SDS011;20538;51.528;9.942;2022-10-30T13:03:31;10.82;;;4.50;;
34278;SDS011;20538;51.528;9.942;2022-10-30T13:06:04;22.63;;;5.35;;
34278;SDS011;20538;51.528;9.942;2022-10-30T13:11:39;25.13;;;5.53;;
34278;SDS011;20538;51.528;9.942;2022-10-30T13:14:34;14.60;;;4.32;;
34278;SDS011;20538;51.528;9.942;2022-10-30T13:17:12;16.42;;;5.00;;
34278;SDS011;20538;51.528;9.942;2022-10-30T13:19:43;11.52;;;4.70;;
34278;SDS011;20538;51.528;9.942;2022-10-30T13:22:56;13.73;;;4.68;;
34278;SDS011;20538;51.528;9.942;2022-10-30T13:30:21;19.77;;;5.15;;
34278;SDS011;20538;51.528;9.942;2022-10-30T13:52:23;14.63;;;4.25;;
34278;SDS011;20538;51.528;9.942;2022-10-30T13:54:59;16.00;;;4.72;;
34278;SDS011;20538;51.528;9.942;2022-10-30T13:57:31;16.63;;;4.68;;
34278;SDS011;20538;51.528;9.942;2022-10-30T14:05:49;13.57;;;4.32;;
34278;SDS011;20538;51.528;9.942;2022-10-30T14:10:51;13.77;;;4.82;;
34278;SDS011;20538;51.528;9.942;2022-10-30T14:13:25;13.65;;;5.25;;
34278;SDS011;20538;51.528;9.942;2022-10-30T14:16:03;10.93;;;4.35;;
34278;SDS011;20538;51.528;9.942;2022-10-30T14:18:43;18.35;;;4.68;;
34278;SDS011;20538;51.528;9.942;2022-10-30T14:24:14;11.55;;;3.97;;
34278;SDS011;20538;51.528;9.942;2022-10-30T14:34:39;17.20;;;4.15;;
34278;SDS011;20538;51.528;9.942;2022-10-30T14:37:08;17.02;;;5.00;;
34278;SDS011;20538;51.528;9.942;2022-10-30T14:39:38;13.75;;;4.05;;
34278;SDS011;20538;51.528;9.942;2022-10-30T14:42:19;13.23;;;4.60;;
34278;SDS011;20538;51.528;9.942;2022-10-30T14:47:39;21.98;;;4.25;;
34278;SDS011;20538;51.528;9.942;2022-10-30T14:53:20;14.80;;;4.47;;
34278;SDS011;20538;51.528;9.942;2022-10-30T14:56:03;16.42;;;4.45;;
34278;SDS011;20538;51.528;9.942;2022-10-30T14:58:40;14.85;;;3.80;;
34278;SDS011;20538;51.528;9.942;2022-10-30T15:04:05;14.02;;;4.35;;
34278;SDS011;20538;51.528;9.942;2022-10-30T15:06:54;9.65;;;4.50;;
34278;SDS011;20538;51.528;9.942;2022-10-30T15:09:58;12.48;;;4.53;;
34278;SDS011;20538;51.528;9.942;2022-10-30T15:15:17;15.10;;;4.63;;
34278;SDS011;20538;51.528;9.942;2022-10-30T15:17:47;17.60;;;5.05;;
34278;SDS011;20538;51.528;9.942;2022-10-30T15:23:29;15.38;;;4.32;;
34278;SDS011;20538;51.528;9.942;2022-10-30T15:25:52;15.25;;;4.22;;
34278;SDS011;20538;51.528;9.942;2022-10-30T15:28:19;13.82;;;4.32;;
34278;SDS011;20538;51.528;9.942;2022-10-30T15:33:29;12.52;;;4.32;;
34278;SDS011;20538;51.528;9.942;2022-10-30T15:35:56;14.60;;;5.00;;
34278;SDS011;20538;51.528;9.942;2022-10-30T15:38:23;7.50;;;3.75;;
34278;SDS011;20538;51.528;9.942;2022-10-30T15:40:48;14.68;;;4.47;;
34278;SDS011;20538;51.528;9.942;2022-10-30T15:43:15;12.75;;;4.40;;
34278;SDS011;20538;51.528;9.942;2022-10-30T15:45:45;18.35;;;5.07;;
34278;SDS011;20538;51.528;9.942;2022-10-30T15:50:59;15.57;;;5.85;;
34278;SDS011;20538;51.528;9.942;2022-10-30T15:53:35;12.48;;;5.30;;
34278;SDS011;20538;51.528;9.942;2022-10-30T15:56:04;21.02;;;7.45;;
34278;SDS011;20538;51.528;9.942;2022-10-30T15:58:32;14.15;;;6.20;;
34278;SDS011;20538;51.528;9.942;2022-10-30T16:01:00;20.70;;;6.50;;
34278;SDS011;20538;51.528;9.942;2022-10-30T16:03:27;16.23;;;6.38;;
34278;SDS011;20538;51.528;9.942;2022-10-30T16:06:13;15.95;;;5.65;;
34278;SDS011;20538;51.528;9.942;2022-10-30T16:08:42;13.27;;;4.72;;
34278;SDS011;20538;51.528;9.942;2022-10-30T16:11:09;18.38;;;5.25;;
34278;SDS011;20538;51.528;9.942;2022-10-30T16:13:35;8.20;;;4.25;;
34278;SDS011;20538;51.528;9.942;2022-10-30T16:16:01;15.45;;;5.00;;
34278;SDS011;20538;51.528;9.942;2022-10-30T16:18:31;13.95;;;4.72;;
34278;SDS011;20538;51.528;9.942;2022-10-30T16:21:06;18.27;;;5.35;;
34278;SDS011;20538;51.528;9.942;2022-10-30T16:23:37;20.25;;;5.43;;
34278;SDS011;20538;51.528;9.942;2022-10-30T16:26:05;16.08;;;5.05;;
34278;SDS011;20538;51.528;9.942;2022-10-30T16:28:33;18.65;;;6.00;;
34278;SDS011;20538;51.528;9.942;2022-10-30T16:31:04;18.35;;;6.20;;
34278;SDS011;20538;51.528;9.942;2022-10-30T16:33:32;16.27;;;5.78;;
34278;SDS011;20538;51.528;9.942;2022-10-30T16:36:01;16.15;;;6.55;;
34278;SDS011;20538;51.528;9.942;2022-10-30T16:38:30;14.05;;;5.70;;
34278;SDS011;20538;51.528;9.942;2022-10-30T16:41:00;17.70;;;6.38;;
34278;SDS011;20538;51.528;9.942;2022-10-30T16:43:32;16.80;;;7.05;;
34278;SDS011;20538;51.528;9.942;2022-10-30T16:48:53;15.70;;;6.05;;
34278;SDS011;20538;51.528;9.942;2022-10-30T16:51:23;14.43;;;5.78;;
34278;SDS011;20538;51.528;9.942;2022-10-30T16:53:50;13.77;;;5.68;;
34278;SDS011;20538;51.528;9.942;2022-10-30T16:56:18;14.98;;;5.43;;
34278;SDS011;20538;51.528;9.942;2022-10-30T16:58:56;12.30;;;6.05;;
34278;SDS011;20538;51.528;9.942;2022-10-30T17:01:31;13.82;;;5.85;;
34278;SDS011;20538;51.528;9.942;2022-10-30T17:03:57;16.45;;;5.45;;
34278;SDS011;20538;51.528;9.942;2022-10-30T17:06:25;17.23;;;5.78;;
34278;SDS011;20538;51.528;9.942;2022-10-30T17:09:05;16.83;;;5.95;;
34278;SDS011;20538;51.528;9.942;2022-10-30T17:11:40;12.48;;;5.78;;
34278;SDS011;20538;51.528;9.942;2022-10-30T17:14:18;24.55;;;6.35;;
34278;SDS011;20538;51.528;9.942;2022-10-30T17:16:54;15.57;;;6.07;;